< < Back
Terminal Aerodrome Forecast


Current Version              Previous Versions:   1  2  3  4  5  6  7  8  9  

Terminal Aerodrome Forecast

515
FTUS42 KMLB 040301 AAA
TAFMCO
TAF AMD
KMCO 040301Z 0403/0424 30003KT P6SM SCT250
     FM041300 31005KT P6SM SCT030 SCT250
     FM041900 VRB05KT P6SM VCTS SCT040CB SCT070
      TEMPO 0419/0422 TS BKN040CB BKN070=

Latest METAR

032
SAUS70 KWBC 040400 RRF
MTRMCO
METAR KMCO 040353Z 16003KT 10SM BKN250 26/23 A2995 RMK AO2 SLP141 OCNL
LTGIC DSNT SE CB DSNT SE T02610228


USA.gov is the U.S. government's official web portal to all federal, state and local government web resources and services.